• Join FlightAware (Why Join?)
  • Login
  • US Flag 
05:23AM EST


 

Airport Tracker/Info


-or-


 

Live Flight TrackerFlight Track Log ✈ JZA8557 ✈ 15-Sep-2013 ✈ CYYC - CYYJ

Flight Track Log - Related Links

Times and Time Zones

All times are in EDT time to prevent confusion due to time zone crossing. See the JZA8557 flight status page for this flight to view local times or setup timezone preferences in your user account.

Time Position Orientation Groundspeed Altitude Reporting Facility
EDT Latitude Longitude Course Direction KTS MPH feet Rate Location/Type
09:30PM 51.0167 -114.0500 232° Southwest 180 207 5,800  Level Edmonton Center
09:31PM 50.9833 -114.1500 242° Southwest 240 276 7,200 1,320 Climbing Edmonton Center
09:32PM 50.9833 -114.2500 270° West 260 299 8,500 1,320 Climbing Edmonton Center
09:33PM 50.9970 -114.5694 257° West  Level Estimated
09:33PM 50.9667 -114.3667 257° West 260 299 9,900  Level Edmonton Center
09:34PM 50.9635 -114.6983 248° West  Level FlightAware Approximate
09:34PM 50.9500 -114.4833 257° West 260 299 11,300  Level Edmonton Center
09:35PM 50.9320 -114.8067 252° West  Level FlightAware Approximate
09:35PM 50.9333 -114.6000 257° West 270 311 12,400  Level Edmonton Center
09:36PM 50.9067 -114.9367 232° Southwest  Level FlightAware Approximate
09:36PM 50.9167 -114.7333 259° West 270 311 13,700  Level Edmonton Center
09:37PM 50.9000 -114.8333 255° West 270 311 14,800 1,080 Climbing Edmonton Center
09:38PM 50.8833 -114.9667 259° West 270 311 15,900 1,440 Climbing Edmonton Center
09:39PM 50.8667 -115.0667 255° West 260 299 17,700 1,260 Climbing Edmonton Center
09:40PM 50.8500 -115.1667 255° West 250 288 18,500 780 Climbing Edmonton Center
09:41PM 50.8333 -115.2667 255° West 260 299 19,300 840 Climbing Edmonton Center
09:42PM 50.8167 -115.4000 259° West 260 299 20,200 840 Climbing Edmonton Center
09:43PM 50.8000 -115.5000 255° West 260 299 21,000 780 Climbing Edmonton Center
09:44PM 50.7667 -115.6000 242° Southwest 260 299 21,800 720 Climbing Edmonton Center
09:45PM 50.7667 -115.7333 270° West 260 299 22,500 660 Climbing Edmonton Center
09:46PM 50.7333 -115.8333 242° Southwest 260 299 23,200 600 Climbing Edmonton Center
09:47PM 50.7167 -115.9667 259° West 270 311 23,800 360 Climbing Edmonton Center
09:48PM 50.7000 -116.0667 255° West 270 311 24,000 60 Climbing Edmonton Center
09:49PM 50.6833 -116.2000 259° West 290 334 24,000  Level Edmonton Center
09:50PM 50.6833 -116.2333 270° West 300 345 24,000  Level Vancouver Center
09:51PM 50.6500 -116.3667 249° West 310 357 24,000  Level Vancouver Center
09:52PM 50.6333 -116.4667 255° West 320 368 24,000  Level Vancouver Center
09:53PM 50.6167 -116.6333 261° West 330 380 24,000  Level Vancouver Center
09:54PM 50.6000 -116.7667 259° West 330 380 24,000  Level Vancouver Center
09:55PM 50.5667 -116.9000 249° West 330 380 24,000  Level Vancouver Center
09:56PM 50.5500 -117.0333 259° West 330 380 24,000  Level Vancouver Center
09:57PM 50.5000 -117.1833 242° Southwest 340 391 24,000  Level Vancouver Center
09:58PM 50.5000 -117.3333 270° West 340 391 24,000  Level Vancouver Center
09:59PM 50.4500 -117.4667 240° Southwest 340 391 24,000  Level Vancouver Center
10:00PM 50.4333 -117.6000 259° West 340 391 24,000  Level Vancouver Center
10:01PM 50.4000 -117.7500 251° West 340 391 24,000  Level Vancouver Center
10:02PM 50.3667 -117.9000 251° West 340 391 24,000  Level Vancouver Center
10:03PM 50.3500 -118.0333 259° West 340 391 24,000  Level Vancouver Center
10:04PM 50.3167 -118.1667 249° West 340 391 24,000  Level Vancouver Center
10:05PM 50.3000 -118.3000 259° West 330 380 24,000  Level Vancouver Center
10:06PM 50.2667 -118.4333 249° West 330 380 24,000  Level Vancouver Center
10:07PM 50.2333 -118.5833 251° West 330 380 24,000  Level Vancouver Center
10:08PM 50.2000 -118.7167 249° West 320 368 24,000  Level Vancouver Center
10:09PM 50.1500 -118.8167 232° Southwest 320 368 24,000  Level Vancouver Center
10:10PM 50.0833 -118.9333 228° Southwest 320 368 24,000  Level Vancouver Center
10:11PM 50.0333 -119.0333 232° Southwest 320 368 24,000  Level Vancouver Center
10:12PM 50.0000 -119.1667 249° West 320 368 24,000  Level Vancouver Center
10:13PM 49.9667 -119.3000 249° West 330 380 24,000  Level Vancouver Center
10:14PM 49.9167 -119.4167 236° Southwest 330 380 24,000  Level Vancouver Center
10:15PM 49.9000 -119.5667 260° West 330 380 24,000  Level Vancouver Center
10:16PM 49.8833 -119.7000 259° West 340 391 24,000  Level Vancouver Center
10:17PM 49.8500 -119.8667 253° West 340 391 24,000  Level Vancouver Center
10:18PM 49.8333 -120.0000 259° West 340 391 24,000  Level Vancouver Center
10:20PM 49.7833 -120.2833 255° West 340 391 24,000  Level Vancouver Center
10:21PM 49.7667 -120.4167 259° West 340 391 24,000  Level Vancouver Center
10:22PM 49.7500 -120.5667 260° West 340 391 24,000  Level Vancouver Center
10:23PM 49.7333 -120.7000 259° West 340 391 24,000  Level Vancouver Center
10:24PM 49.7000 -120.8500 251° West 340 391 24,000  Level Vancouver Center
10:25PM 49.6833 -120.9833 259° West 340 391 24,000  Level Vancouver Center
10:26PM 49.6500 -121.1500 253° West 340 391 24,000  Level Vancouver Center
10:27PM 49.6333 -121.2667 258° West 340 391 24,000  Level Vancouver Center
10:28PM 49.6167 -121.4000 259° West 340 391 24,000  Level Vancouver Center
10:29PM 49.5833 -121.5667 253° West 340 391 24,000  Level Vancouver Center
10:30PM 49.5667 -121.6833 258° West 340 391 24,000  Level Vancouver Center
10:31PM 49.5333 -121.8500 253° West 340 391 24,000  Level Vancouver Center
10:32PM 49.5167 -121.9667 258° West 340 391 24,000  Level Vancouver Center
10:33PM 49.4833 -122.1000 249° West 340 391 24,000  Level Vancouver Center
10:34PM 49.4333 -122.2333 240° Southwest 330 380 24,000 -240 Level Vancouver Center
10:35PM 49.3833 -122.3333 232° Southwest 340 391 23,600 -900 Descending Vancouver Center
10:36PM 49.3333 -122.4667 240° Southwest 330 380 22,200 -1,440 Descending Vancouver Center
10:37PM 49.2833 -122.6000 240° Southwest 320 368 20,800 -1,320 Descending Vancouver Center
10:38PM 49.2500 -122.7000 243° Southwest 330 380 19,600 -1,080 Descending Vancouver Center
10:39PM 49.2000 -122.8000 233° Southwest 300 345 18,700 -840 Descending Vancouver Center
10:40PM 49.1500 -122.9000 233° Southwest 270 311 18,000 -780 Descending Vancouver Center
10:41PM 49.1167 -123.0167 246° West 280 322 17,200 -900 Descending Vancouver Center
10:42PM 49.0667 -123.1167 233° Southwest 300 345 16,300 -1,200 Descending Vancouver Center
10:43PM 49.0000 -123.1833 213° Southwest 330 380 14,800 -1,500 Descending Vancouver Center
10:44PM 48.9167 -123.2333 202° Southwest 300 345 13,400 -1,440 Descending Vancouver Center
10:45PM 48.8500 -123.3000 213° Southwest 260 299 12,000 -1,320 Descending Vancouver Center
10:46PM 48.8000 -123.3667 221° Southwest 260 299 10,800 -1,380 Descending Vancouver Center
10:47PM 48.7333 -123.4500 220° Southwest 270 311 9,300 -1,500 Descending Vancouver Center
10:48PM 48.7167 -123.5167 249° West 270 311 7,900 -1,440 Descending Vancouver Center
10:49PM 48.7333 -123.6500 281° West 270 311 6,500 -1,380 Descending Vancouver Center
10:50PM 48.7667 -123.7500 297° West 270 311 5,200 -960 Descending Vancouver Center
10:51PM 48.7500 -123.8167 249° West 220 253 4,600 -480 Descending Vancouver Center
10:52PM 48.7167 -123.8000 162° South 200 230 4,300 -300 Descending Vancouver Center
10:53PM 48.6833 -123.7167 121° Southeast 190 219 4,000 -660 Descending Vancouver Center
10:54PM 48.6667 -123.6500 111° Southeast 190 219 3,000 -1,020 Descending Vancouver Center
10:55PM 48.6500 -123.5667 107° East 190 219 2,000 -1,020 Descending Vancouver Center
10:56PM 48.6500 -123.5000 90° East 180 207 1,000 -900 Descending Vancouver Center
10:57PM 48.6333 -123.4500 117° Southeast 140 161 300 -720 Descending Vancouver Center